createdAt,value
2022-12-16T00:00:09.943Z,-2.10
2022-12-16T00:02:36.994Z,-2.10
2022-12-16T00:05:04.785Z,-1.99
2022-12-16T00:07:31.872Z,-2.16
2022-12-16T00:09:58.996Z,-2.10
2022-12-16T00:12:26.102Z,-2.15
2022-12-16T00:14:53.088Z,-2.20
2022-12-16T00:17:21.893Z,-2.01
2022-12-16T00:19:48.946Z,-2.11
2022-12-16T00:22:15.930Z,-2.21
2022-12-16T00:24:42.978Z,-2.05
2022-12-16T00:27:10.825Z,-2.06
2022-12-16T00:29:37.882Z,-2.20
2022-12-16T00:32:06.418Z,-2.02
2022-12-16T00:34:33.813Z,-2.26
2022-12-16T00:37:01.010Z,-2.21
2022-12-16T00:39:28.019Z,-2.41
2022-12-16T00:41:54.983Z,-2.32
2022-12-16T00:44:22.026Z,-2.29
2022-12-16T00:46:49.029Z,-2.18
2022-12-16T00:49:15.996Z,-2.14
2022-12-16T00:51:42.977Z,-2.14
2022-12-16T00:54:09.987Z,-2.16
2022-12-16T00:56:37.052Z,-2.06
2022-12-16T00:59:04.041Z,-2.13
2022-12-16T01:01:31.169Z,-2.27
2022-12-16T01:03:58.397Z,-2.56
2022-12-16T01:06:25.449Z,-2.44
2022-12-16T01:08:52.510Z,-2.38
2022-12-16T01:11:22.043Z,-2.38
2022-12-16T01:13:52.595Z,-2.22
2022-12-16T01:16:22.515Z,-2.12
2022-12-16T01:18:49.891Z,-2.08
2022-12-16T01:21:17.001Z,-2.13
2022-12-16T01:23:44.052Z,-2.11
2022-12-16T01:26:16.685Z,-2.23
2022-12-16T01:28:44.060Z,-2.22
2022-12-16T01:31:12.494Z,-2.23
2022-12-16T01:33:39.812Z,-2.27
2022-12-16T01:36:08.994Z,-2.44
2022-12-16T01:38:36.782Z,-2.47
2022-12-16T01:41:05.600Z,-2.46
2022-12-16T01:43:37.191Z,-2.53
2022-12-16T01:46:19.057Z,-2.50
2022-12-16T01:49:10.051Z,-2.42
2022-12-16T01:51:50.484Z,-2.32
2022-12-16T01:54:29.302Z,-2.40
2022-12-16T01:57:02.718Z,-2.48
2022-12-16T01:59:31.873Z,-2.60
2022-12-16T02:01:59.937Z,-2.68
2022-12-16T02:04:27.027Z,-2.69
2022-12-16T02:06:54.890Z,-2.62
2022-12-16T02:09:21.944Z,-2.59
2022-12-16T02:12:00.976Z,-2.62
2022-12-16T02:15:08.808Z,-2.84
2022-12-16T02:17:47.218Z,-2.88
2022-12-16T02:21:01.859Z,-3.06
2022-12-16T02:23:58.552Z,-2.96
2022-12-16T02:27:02.341Z,-3.05
2022-12-16T02:30:07.855Z,-3.18
2022-12-16T02:33:13.212Z,-3.11
2022-12-16T02:35:56.809Z,-2.97
2022-12-16T02:38:36.814Z,-2.90
2022-12-16T02:41:06.896Z,-3.00
2022-12-16T02:43:55.751Z,-2.96
2022-12-16T02:46:30.879Z,-2.95
2022-12-16T02:49:06.354Z,-2.94
2022-12-16T02:51:37.413Z,-2.89
2022-12-16T02:54:08.253Z,-3.07
2022-12-16T02:57:13.701Z,-3.10
2022-12-16T03:00:16.162Z,-3.12
2022-12-16T03:03:04.125Z,-3.17
2022-12-16T03:05:40.985Z,-3.18
2022-12-16T03:08:17.137Z,-3.07
2022-12-16T03:10:48.886Z,-3.11
2022-12-16T03:13:19.906Z,-3.06
2022-12-16T03:15:49.982Z,-2.97
2022-12-16T03:18:19.027Z,-3.11
2022-12-16T03:21:05.301Z,-3.03
2022-12-16T03:23:42.448Z,-2.96
2022-12-16T03:26:36.058Z,-3.03
2022-12-16T03:29:35.992Z,-2.99
2022-12-16T03:32:21.989Z,-3.04
2022-12-16T03:35:20.936Z,-3.12
2022-12-16T03:37:53.756Z,-3.27
2022-12-16T03:40:21.726Z,-3.24
2022-12-16T03:42:49.778Z,-3.18
2022-12-16T03:45:24.403Z,-3.25
2022-12-16T03:47:52.704Z,-3.20
2022-12-16T03:50:25.538Z,-3.36
2022-12-16T03:52:53.426Z,-3.39
2022-12-16T03:55:20.420Z,-3.25
2022-12-16T03:57:47.400Z,-3.29
2022-12-16T04:00:15.256Z,-3.20
2022-12-16T04:02:42.717Z,-3.21
2022-12-16T04:05:10.590Z,-3.30
2022-12-16T04:07:37.617Z,-3.30
2022-12-16T04:10:06.028Z,-3.25
2022-12-16T04:12:51.894Z,-3.32
2022-12-16T04:15:37.489Z,-3.27
2022-12-16T04:18:24.662Z,-3.48
2022-12-16T04:21:14.587Z,-3.52
2022-12-16T04:24:11.115Z,-3.40
2022-12-16T04:27:13.572Z,-3.54
2022-12-16T04:30:01.814Z,-3.58
2022-12-16T04:32:49.908Z,-3.58
2022-12-16T04:35:35.742Z,-3.60
2022-12-16T04:38:21.781Z,-3.59
2022-12-16T04:41:07.345Z,-3.81
2022-12-16T04:43:53.476Z,-3.65
2022-12-16T04:46:39.509Z,-3.75
2022-12-16T04:49:25.170Z,-3.78
2022-12-16T04:52:10.621Z,-3.65
2022-12-16T04:54:56.074Z,-3.52
2022-12-16T04:57:42.182Z,-3.66
2022-12-16T05:00:28.588Z,-3.47
2022-12-16T05:03:15.285Z,-3.48
2022-12-16T05:06:01.655Z,-3.46
2022-12-16T05:08:47.354Z,-3.56
2022-12-16T05:11:33.074Z,-3.54
2022-12-16T05:14:18.650Z,-3.64
2022-12-16T05:17:04.413Z,-3.63
2022-12-16T05:19:50.066Z,-3.64
2022-12-16T05:22:35.923Z,-3.59
2022-12-16T05:25:21.574Z,-3.64
2022-12-16T05:28:13.308Z,-3.52
2022-12-16T05:30:59.275Z,-3.55
2022-12-16T05:33:44.812Z,-3.77
2022-12-16T05:36:30.532Z,-3.85
2022-12-16T05:39:16.427Z,-3.99
2022-12-16T05:42:02.257Z,-4.01
2022-12-16T05:44:47.692Z,-3.68
2022-12-16T05:47:33.299Z,-3.36
2022-12-16T05:50:18.995Z,-3.48
2022-12-16T05:53:12.604Z,-3.50
2022-12-16T05:55:58.317Z,-3.62
2022-12-16T05:58:44.821Z,-3.68
2022-12-16T06:01:30.758Z,-3.52
2022-12-16T06:04:17.955Z,-3.58
2022-12-16T06:07:03.907Z,-3.49
2022-12-16T06:09:56.083Z,-3.51
2022-12-16T06:12:42.421Z,-3.66
2022-12-16T06:15:29.284Z,-3.63
2022-12-16T06:18:15.217Z,-3.81
2022-12-16T06:21:01.259Z,-3.71
2022-12-16T06:23:47.227Z,-3.73
2022-12-16T06:26:32.728Z,-3.86
2022-12-16T06:29:18.551Z,-3.89
2022-12-16T06:32:04.006Z,-3.98
2022-12-16T06:34:49.540Z,-4.04
2022-12-16T06:37:35.306Z,-4.15
2022-12-16T06:40:21.857Z,-3.99
2022-12-16T06:43:07.819Z,-3.67
2022-12-16T06:45:57.784Z,-3.84
2022-12-16T06:48:43.546Z,-3.84
2022-12-16T06:51:29.385Z,-3.69
2022-12-16T06:54:14.918Z,-3.91
2022-12-16T06:57:00.733Z,-3.91
2022-12-16T06:59:46.238Z,-3.77
2022-12-16T07:02:32.407Z,-3.43
2022-12-16T07:05:18.068Z,-3.36
2022-12-16T07:08:10.671Z,-3.46
2022-12-16T07:11:04.841Z,-3.37
2022-12-16T07:14:01.618Z,-3.52
2022-12-16T07:16:47.145Z,-3.57
2022-12-16T07:19:32.828Z,-3.46
2022-12-16T07:22:18.283Z,-3.44
2022-12-16T07:25:04.085Z,-3.28
2022-12-16T07:27:49.555Z,-3.51
2022-12-16T07:30:35.130Z,-3.36
2022-12-16T07:33:21.060Z,-3.22
2022-12-16T07:36:06.476Z,-3.36
2022-12-16T07:38:52.126Z,-3.34
2022-12-16T07:41:37.617Z,-3.50
2022-12-16T07:44:23.369Z,-3.63
2022-12-16T07:47:09.223Z,-3.38
2022-12-16T07:49:55.530Z,-3.20
2022-12-16T07:52:42.128Z,-3.16
2022-12-16T07:55:28.345Z,-3.34
2022-12-16T07:58:13.901Z,-3.43
2022-12-16T08:01:01.001Z,-3.90
2022-12-16T08:03:49.303Z,-3.92
2022-12-16T08:06:39.982Z,-3.67
2022-12-16T08:09:26.057Z,-3.87
2022-12-16T08:12:11.727Z,-3.73
2022-12-16T08:15:04.833Z,-3.74
2022-12-16T08:17:50.628Z,-3.82
2022-12-16T08:20:38.228Z,-3.59
2022-12-16T08:23:24.067Z,-3.39
2022-12-16T08:26:09.443Z,-3.28
2022-12-16T08:28:54.926Z,-3.05
2022-12-16T08:31:40.771Z,-3.33
2022-12-16T08:34:26.955Z,-3.37
2022-12-16T08:37:12.810Z,-3.15
2022-12-16T08:40:25.835Z,-3.13
2022-12-16T08:43:09.297Z,-2.97
2022-12-16T08:45:56.891Z,-2.89
2022-12-16T08:48:42.753Z,-2.85
2022-12-16T08:51:28.269Z,-2.88
2022-12-16T08:54:13.972Z,-3.08
2022-12-16T08:57:00.903Z,-2.92
2022-12-16T08:59:46.446Z,-3.20
2022-12-16T09:02:32.269Z,-3.33
2022-12-16T09:05:22.507Z,-3.21
2022-12-16T21:15:57.958Z,-1.08
2022-12-16T21:18:43.998Z,-1.18
2022-12-16T21:21:29.524Z,-1.25
2022-12-16T21:24:15.440Z,-1.20
2022-12-16T21:27:01.231Z,-1.14
2022-12-16T21:29:46.750Z,-1.16
2022-12-16T21:32:32.539Z,-1.19
2022-12-16T21:35:18.447Z,-1.15
2022-12-16T21:38:04.408Z,-1.07
2022-12-16T21:41:09.676Z,-1.11
2022-12-16T21:43:55.253Z,-1.13
2022-12-16T21:46:42.355Z,-1.17
2022-12-16T21:49:27.807Z,-1.18
2022-12-16T21:52:13.417Z,-1.21
2022-12-16T21:54:59.183Z,-1.21
2022-12-16T21:57:44.977Z,-1.24
2022-12-16T22:00:31.532Z,-1.20
2022-12-16T22:03:17.288Z,-1.20
2022-12-16T22:06:03.031Z,-1.17
2022-12-16T22:08:48.902Z,-1.20
2022-12-16T22:11:34.489Z,-1.21
2022-12-16T22:14:20.096Z,-1.24
2022-12-16T22:17:06.232Z,-1.06
2022-12-16T22:19:51.740Z,-1.13
2022-12-16T22:22:37.536Z,-1.19
2022-12-16T22:25:24.127Z,-1.28
2022-12-16T22:28:09.685Z,-1.25
2022-12-16T22:30:56.163Z,-1.29
2022-12-16T22:33:42.400Z,-1.26
2022-12-16T22:36:31.900Z,-1.23
2022-12-16T22:39:17.592Z,-1.22
2022-12-16T22:42:03.118Z,-1.15
2022-12-16T22:44:48.744Z,-1.16
2022-12-16T22:47:34.588Z,-1.14
2022-12-16T22:50:20.133Z,-1.17
2022-12-16T22:53:05.952Z,-1.18
2022-12-16T22:55:51.524Z,-1.12
2022-12-16T22:58:37.938Z,-1.12
2022-12-16T23:01:27.241Z,-1.10
2022-12-16T23:04:12.852Z,-1.14
2022-12-16T23:06:58.337Z,-1.17
2022-12-16T23:09:43.916Z,-1.17
2022-12-16T23:12:29.613Z,-1.16
2022-12-16T23:15:29.496Z,-1.17
2022-12-16T23:18:15.348Z,-1.13
2022-12-16T23:21:09.861Z,-1.20
2022-12-16T23:23:56.978Z,-1.18
2022-12-16T23:26:42.825Z,-1.13
2022-12-16T23:29:28.429Z,-1.15
2022-12-16T23:32:14.197Z,-1.19
2022-12-16T23:34:59.858Z,-1.12
2022-12-16T23:37:45.421Z,-1.14
2022-12-16T23:40:31.454Z,-1.20
2022-12-16T23:43:17.268Z,-1.16
2022-12-16T23:46:03.324Z,-1.11
2022-12-16T23:48:48.932Z,-1.13
2022-12-16T23:51:34.289Z,-1.15
2022-12-16T23:54:19.873Z,-1.15
2022-12-16T23:57:05.706Z,-1.12
2022-12-16T23:59:51.668Z,-1.20
